createdAt,value
2018-09-09T00:00:15.632Z,11.52
2018-09-09T00:01:15.623Z,11.43
2018-09-09T00:02:15.623Z,11.52
2018-09-09T00:03:15.619Z,11.61
2018-09-09T00:04:15.647Z,11.67
2018-09-09T00:05:15.615Z,11.65
2018-09-09T00:06:15.627Z,11.70
2018-09-09T00:07:15.612Z,11.71
2018-09-09T00:08:15.613Z,11.80
2018-09-09T00:09:15.640Z,11.75
2018-09-09T00:10:15.624Z,11.83
2018-09-09T00:11:15.613Z,11.89
2018-09-09T00:12:15.608Z,11.83
2018-09-09T00:13:15.601Z,11.96
2018-09-09T00:14:15.633Z,12.01
2018-09-09T00:15:15.637Z,12.13
2018-09-09T00:16:15.602Z,12.13
2018-09-09T00:17:15.616Z,12.16
2018-09-09T00:18:15.597Z,12.11
2018-09-09T00:19:15.598Z,11.97
2018-09-09T00:20:15.644Z,11.96
2018-09-09T00:21:15.594Z,11.97
2018-09-09T00:22:15.594Z,12.01
2018-09-09T00:23:15.590Z,12.01
2018-09-09T00:24:15.607Z,12.04
2018-09-09T00:25:15.615Z,12.09
2018-09-09T00:26:15.583Z,12.08
2018-09-09T00:27:15.588Z,12.12
2018-09-09T00:28:15.587Z,12.23
2018-09-09T00:29:15.579Z,12.26
2018-09-09T00:30:15.612Z,12.26
2018-09-09T00:31:15.582Z,12.37
2018-09-09T00:32:15.582Z,12.38
2018-09-09T00:33:15.580Z,12.44
2018-09-09T00:34:15.608Z,12.46
2018-09-09T00:35:15.576Z,12.37
2018-09-09T00:36:15.601Z,12.23
2018-09-09T00:37:15.579Z,12.09
2018-09-09T00:38:15.572Z,12.01
2018-09-09T00:39:15.565Z,11.94
2018-09-09T00:40:15.597Z,11.82
2018-09-09T00:41:15.566Z,11.89
2018-09-09T00:42:15.557Z,11.72
2018-09-09T00:43:15.565Z,11.72
2018-09-09T00:44:15.565Z,11.74
2018-09-09T00:45:15.590Z,11.70
2018-09-09T00:46:15.562Z,11.70
2018-09-09T00:47:15.567Z,11.70
2018-09-09T00:48:15.583Z,11.62
2018-09-09T00:49:15.553Z,11.52
2018-09-09T00:50:15.587Z,11.46
2018-09-09T00:51:15.558Z,11.47
2018-09-09T00:52:15.557Z,11.41
2018-09-09T00:53:15.554Z,11.35
2018-09-09T00:54:15.559Z,11.34
2018-09-09T00:55:15.603Z,11.24
2018-09-09T00:56:15.550Z,11.29
2018-09-09T00:57:15.551Z,11.21
2018-09-09T00:58:15.571Z,11.25
2018-09-09T00:59:15.543Z,11.25
2018-09-09T01:00:15.567Z,11.28
2018-09-09T01:01:15.539Z,11.25
2018-09-09T01:02:15.540Z,11.16
2018-09-09T01:03:15.536Z,11.16
2018-09-09T01:04:15.536Z,11.11
2018-09-09T01:05:15.564Z,11.10
2018-09-09T01:06:15.544Z,11.06
2018-09-09T01:07:15.536Z,11.06
2018-09-09T01:08:15.549Z,11.13
2018-09-09T01:09:15.534Z,11.11
2018-09-09T01:10:15.558Z,11.07
2018-09-09T01:11:15.526Z,11.06
2018-09-09T01:12:15.526Z,11.10
2018-09-09T01:13:15.526Z,11.17
2018-09-09T01:14:15.525Z,11.27
2018-09-09T01:15:15.569Z,11.32
2018-09-09T01:16:15.518Z,11.34
2018-09-09T01:17:15.521Z,11.38
2018-09-09T01:18:15.513Z,11.35
2018-09-09T01:19:15.509Z,11.43
2018-09-09T01:20:15.538Z,11.57
2018-09-09T01:21:15.509Z,11.56
2018-09-09T01:22:15.503Z,11.62
2018-09-09T01:23:15.506Z,11.49
2018-09-09T01:24:15.502Z,11.59
2018-09-09T01:25:15.535Z,11.50
2018-09-09T01:26:15.503Z,11.46
2018-09-09T01:27:15.498Z,11.41
2018-09-09T01:28:15.499Z,11.46
2018-09-09T01:29:15.507Z,11.52
2018-09-09T01:30:15.516Z,11.46
2018-09-09T01:31:15.492Z,11.46
2018-09-09T01:32:15.491Z,11.50
2018-09-09T01:33:15.485Z,11.61
2018-09-09T01:34:15.490Z,11.67
2018-09-09T01:35:15.521Z,11.71
2018-09-09T01:36:15.505Z,11.70
2018-09-09T01:37:15.484Z,11.70
2018-09-09T01:38:15.481Z,11.68
2018-09-09T01:39:15.498Z,11.68
2018-09-09T01:40:15.515Z,11.68
2018-09-09T01:41:15.478Z,11.71
2018-09-09T01:42:15.473Z,11.70
2018-09-09T01:43:15.478Z,11.72
2018-09-09T01:44:15.469Z,11.71
2018-09-09T01:45:15.502Z,11.80
2018-09-09T01:46:15.658Z,11.72
2018-09-09T01:47:15.468Z,11.70
2018-09-09T01:48:15.469Z,11.74
2018-09-09T01:49:15.475Z,11.83
2018-09-09T01:50:15.491Z,11.78
2018-09-09T01:51:15.472Z,11.83
2018-09-09T01:52:15.455Z,11.77
2018-09-09T01:53:15.475Z,11.83
2018-09-09T01:54:15.459Z,11.74
2018-09-09T01:55:15.483Z,11.82
2018-09-09T01:56:15.456Z,11.86
2018-09-09T01:57:15.451Z,11.80
2018-09-09T01:58:15.451Z,11.80
2018-09-09T01:59:15.447Z,11.82
2018-09-09T02:00:15.497Z,11.80
2018-09-09T02:01:15.448Z,11.83
2018-09-09T02:02:15.443Z,11.94
2018-09-09T02:03:15.471Z,11.90
2018-09-09T02:04:15.444Z,11.89
2018-09-09T02:05:15.468Z,12.02
2018-09-09T02:06:15.445Z,12.05
2018-09-09T02:07:15.437Z,12.06
2018-09-09T02:08:15.436Z,12.11
2018-09-09T02:09:15.438Z,12.23
2018-09-09T02:10:15.477Z,12.24
2018-09-09T02:11:15.459Z,12.29
2018-09-09T02:12:15.433Z,12.39
2018-09-09T02:13:15.445Z,12.44
2018-09-09T02:14:15.429Z,12.45
2018-09-09T02:15:15.426Z,12.57
2018-09-09T02:16:15.455Z,12.66
2018-09-09T02:17:15.437Z,12.60
2018-09-09T02:18:15.418Z,12.75
2018-09-09T02:19:15.425Z,12.75
2018-09-09T02:20:15.419Z,12.78
2018-09-09T02:21:15.445Z,12.74
2018-09-09T02:22:15.420Z,12.78
2018-09-09T02:23:15.414Z,12.71
2018-09-09T02:24:15.414Z,12.67
2018-09-09T02:25:15.440Z,12.62
2018-09-09T02:26:15.531Z,12.60
2018-09-09T02:27:15.419Z,12.46
2018-09-09T02:28:15.408Z,12.54
2018-09-09T02:29:15.407Z,12.41
2018-09-09T02:30:15.439Z,12.44
2018-09-09T02:31:15.429Z,12.26
2018-09-09T02:32:15.410Z,12.24
2018-09-09T02:33:15.405Z,12.12
2018-09-09T02:34:15.406Z,12.09
2018-09-09T02:35:15.404Z,12.06
2018-09-09T02:36:15.433Z,11.99
2018-09-09T02:37:15.396Z,11.93
2018-09-09T02:38:15.401Z,11.80
2018-09-09T02:39:15.406Z,11.89
2018-09-09T02:40:15.393Z,11.85
2018-09-09T02:41:15.428Z,11.75
2018-09-09T02:42:15.399Z,11.78
2018-09-09T02:43:15.390Z,11.77
2018-09-09T02:44:15.395Z,11.71
2018-09-09T02:45:15.390Z,11.80
2018-09-09T02:46:15.421Z,11.78
2018-09-09T02:47:15.383Z,11.65
2018-09-09T02:48:15.383Z,11.62
2018-09-09T02:49:15.386Z,11.59
2018-09-09T02:50:15.380Z,11.68
2018-09-09T02:51:15.415Z,11.62
2018-09-09T02:52:15.380Z,11.61
2018-09-09T02:53:15.379Z,11.52
2018-09-09T02:54:15.381Z,11.53
2018-09-09T02:55:15.378Z,11.47
2018-09-09T02:56:15.410Z,11.50
2018-09-09T02:57:15.369Z,11.49
2018-09-09T02:58:15.382Z,11.38
2018-09-09T02:59:15.367Z,11.50
2018-09-09T03:00:15.364Z,11.52
2018-09-09T03:01:15.407Z,11.47
2018-09-09T03:02:15.365Z,11.50
2018-09-09T03:03:15.364Z,11.44
2018-09-09T03:04:15.362Z,11.53
2018-09-09T03:05:15.392Z,11.59
2018-09-09T03:06:15.513Z,11.64
2018-09-09T03:07:15.357Z,11.65
2018-09-09T03:08:15.360Z,11.74
2018-09-09T03:09:15.354Z,11.82
2018-09-09T03:10:15.382Z,11.75
2018-09-09T03:11:15.358Z,11.80
2018-09-09T03:12:15.353Z,11.96
2018-09-09T03:13:15.349Z,11.97
2018-09-09T03:14:15.349Z,11.97
2018-09-09T03:15:15.385Z,11.77
2018-09-09T03:16:15.342Z,11.85
2018-09-09T03:17:15.345Z,11.80
2018-09-09T03:18:15.341Z,11.77
2018-09-09T03:19:15.372Z,11.71
2018-09-09T03:20:15.340Z,11.65
2018-09-09T03:21:15.350Z,11.71
2018-09-09T03:22:15.340Z,11.65
2018-09-09T03:23:15.331Z,11.67
2018-09-09T03:24:15.364Z,11.57
2018-09-09T03:25:15.330Z,11.49
2018-09-09T03:26:15.331Z,11.53
2018-09-09T03:27:15.331Z,11.52
2018-09-09T03:28:15.328Z,11.52
2018-09-09T03:29:15.370Z,11.53
2018-09-09T03:30:15.328Z,11.62
2018-09-09T03:31:15.325Z,11.67
2018-09-09T03:32:15.343Z,11.65
2018-09-09T03:33:15.320Z,11.67
2018-09-09T03:34:15.350Z,11.74
2018-09-09T03:35:15.315Z,11.74
2018-09-09T03:36:15.316Z,11.77
2018-09-09T03:37:15.321Z,11.77
2018-09-09T03:38:15.313Z,11.74
2018-09-09T03:39:15.359Z,11.78
2018-09-09T03:40:15.383Z,11.78
2018-09-09T03:41:15.309Z,11.72
2018-09-09T03:42:15.317Z,11.80
2018-09-09T03:43:15.307Z,11.83
2018-09-09T03:44:15.333Z,11.77
2018-09-09T03:45:15.306Z,11.78
2018-09-09T03:46:15.300Z,11.78
2018-09-09T03:47:15.308Z,11.77
2018-09-09T03:48:15.303Z,11.74
2018-09-09T03:49:15.346Z,11.70
2018-09-09T03:50:15.304Z,11.67
2018-09-09T03:51:15.295Z,11.62
2018-09-09T03:52:15.318Z,11.67
2018-09-09T03:53:15.291Z,11.70
2018-09-09T03:54:15.319Z,11.72
2018-09-09T03:55:15.288Z,11.65
2018-09-09T03:56:15.316Z,11.77
2018-09-09T03:57:15.287Z,11.70
2018-09-09T03:58:15.289Z,11.68
2018-09-09T03:59:15.314Z,11.74
2018-09-09T04:00:15.284Z,11.70
2018-09-09T04:01:15.276Z,11.65
2018-09-09T04:02:15.313Z,11.68
2018-09-09T04:03:15.275Z,11.61
2018-09-09T04:04:15.277Z,11.65
2018-09-09T04:05:15.309Z,11.65
2018-09-09T04:06:15.289Z,11.62
2018-09-09T04:07:15.273Z,11.65
2018-09-09T04:08:15.270Z,11.65
2018-09-09T04:09:15.297Z,11.77
2018-09-09T04:10:15.328Z,11.77
2018-09-09T04:11:15.266Z,11.82
2018-09-09T04:12:15.293Z,11.89
2018-09-09T04:13:15.265Z,11.99
2018-09-09T04:14:15.261Z,11.85
2018-09-09T04:15:15.288Z,11.93
2018-09-09T04:16:15.257Z,11.94
2018-09-09T04:17:15.259Z,11.96
2018-09-09T04:18:15.260Z,11.97
2018-09-09T04:19:15.255Z,11.97
2018-09-09T04:20:15.283Z,12.04
2018-09-09T04:21:15.251Z,11.94
2018-09-09T04:22:15.257Z,12.04
2018-09-09T04:23:15.248Z,11.97
2018-09-09T04:24:15.244Z,11.94
2018-09-09T04:25:15.282Z,11.83
2018-09-09T04:26:15.247Z,11.71
2018-09-09T04:27:15.241Z,11.74
2018-09-09T04:28:15.245Z,11.77
2018-09-09T04:29:15.242Z,11.72
2018-09-09T04:30:15.273Z,11.80
2018-09-09T04:31:15.237Z,11.74
2018-09-09T04:32:15.253Z,11.74
2018-09-09T04:33:15.235Z,11.80
2018-09-09T04:34:15.233Z,11.80
2018-09-09T04:35:15.257Z,11.80
2018-09-09T04:36:15.229Z,11.94
2018-09-09T04:37:15.228Z,11.93
2018-09-09T04:38:15.232Z,11.94
2018-09-09T04:39:15.229Z,11.96
2018-09-09T04:40:15.251Z,11.93
2018-09-09T04:41:15.228Z,11.97
2018-09-09T04:42:15.224Z,11.96
2018-09-09T04:43:15.218Z,11.93
2018-09-09T04:44:15.231Z,11.93
2018-09-09T04:45:15.244Z,11.96
2018-09-09T04:46:15.216Z,11.89
2018-09-09T04:47:15.214Z,11.96
2018-09-09T04:48:15.241Z,11.85
2018-09-09T04:49:15.211Z,11.77
2018-09-09T04:50:15.211Z,11.82
2018-09-09T04:51:15.236Z,11.77
2018-09-09T04:52:15.231Z,11.77
2018-09-09T04:53:15.203Z,11.75
2018-09-09T04:54:15.197Z,11.70
2018-09-09T04:55:15.199Z,11.65
2018-09-09T04:56:15.232Z,11.64
2018-09-09T04:57:15.197Z,11.62
2018-09-09T04:58:15.205Z,11.59
2018-09-09T04:59:15.192Z,11.71
2018-09-09T05:00:15.197Z,11.68
2018-09-09T05:01:15.238Z,11.70
2018-09-09T05:02:15.191Z,11.65
2018-09-09T05:03:15.189Z,11.64
2018-09-09T05:04:15.184Z,11.61
2018-09-09T05:05:15.192Z,11.72
2018-09-09T05:06:15.227Z,11.77
2018-09-09T05:07:15.181Z,11.72
2018-09-09T05:08:15.223Z,11.86
2018-09-09T05:09:15.177Z,11.89
2018-09-09T05:10:15.178Z,11.97
2018-09-09T05:11:15.183Z,12.02
2018-09-09T05:12:15.203Z,11.96
2018-09-09T05:13:15.173Z,12.04
2018-09-09T05:14:15.173Z,12.06
2018-09-09T05:15:15.183Z,12.08
2018-09-09T05:16:15.199Z,12.01
2018-09-09T05:17:15.166Z,12.12
2018-09-09T05:18:15.214Z,11.97
2018-09-09T05:19:15.167Z,11.89
2018-09-09T05:20:15.164Z,11.83
2018-09-09T05:21:15.163Z,11.89
2018-09-09T05:22:15.197Z,11.87
2018-09-09T05:23:15.159Z,11.78
2018-09-09T05:24:15.159Z,11.83
2018-09-09T05:25:15.168Z,11.99
2018-09-09T05:26:15.156Z,12.08
2018-09-09T05:27:15.180Z,12.09
2018-09-09T05:28:15.155Z,12.13
2018-09-09T05:29:15.156Z,12.26
2018-09-09T05:30:15.150Z,12.39
2018-09-09T05:31:15.175Z,12.45
2018-09-09T05:32:15.166Z,12.45
2018-09-09T05:33:15.148Z,12.46
2018-09-09T05:34:15.148Z,12.56
2018-09-09T05:35:15.147Z,12.62
2018-09-09T05:36:15.168Z,12.69
2018-09-09T05:37:15.143Z,12.77
2018-09-09T05:38:15.144Z,12.75
2018-09-09T05:39:15.153Z,12.75
2018-09-09T05:40:15.139Z,12.70
2018-09-09T05:41:15.168Z,12.54
2018-09-09T05:42:15.204Z,12.66
2018-09-09T05:43:15.161Z,12.67
2018-09-09T05:44:15.130Z,12.75
2018-09-09T05:45:15.131Z,12.77
2018-09-09T05:46:15.150Z,12.92
2018-09-09T05:47:15.158Z,12.96
2018-09-09T05:48:15.134Z,12.96
2018-09-09T05:49:15.144Z,12.89
2018-09-09T05:50:15.131Z,12.87
2018-09-09T05:51:15.157Z,12.95
2018-09-09T05:52:15.125Z,12.81
2018-09-09T05:53:15.126Z,13.02
2018-09-09T05:54:15.128Z,13.00
2018-09-09T05:55:15.129Z,13.06
2018-09-09T05:56:15.167Z,13.06
2018-09-09T05:57:15.123Z,13.11
2018-09-09T05:58:15.125Z,13.09
2018-09-09T05:59:15.123Z,13.20
2018-09-09T06:00:15.126Z,13.20
2018-09-09T06:01:15.149Z,13.25
2018-09-09T06:02:15.127Z,13.36
2018-09-09T06:03:15.125Z,13.43
2018-09-09T06:04:15.120Z,13.47
2018-09-09T06:05:15.121Z,13.62
2018-09-09T06:06:15.152Z,13.63
2018-09-09T06:07:15.121Z,13.67
2018-09-09T06:08:15.121Z,13.77
2018-09-09T06:09:15.122Z,13.88
2018-09-09T06:10:15.119Z,13.91
2018-09-09T06:11:15.147Z,13.96
2018-09-09T06:12:15.156Z,13.87
2018-09-09T06:13:15.113Z,13.95
2018-09-09T06:14:15.115Z,13.87
2018-09-09T06:15:15.117Z,13.84
2018-09-09T06:16:15.117Z,13.91
2018-09-09T06:17:15.169Z,13.99
2018-09-09T06:18:15.118Z,13.87
2018-09-09T06:19:15.118Z,13.91
2018-09-09T06:20:15.142Z,13.95
2018-09-09T06:21:15.118Z,14.07
2018-09-09T06:22:15.143Z,14.19
2018-09-09T06:23:15.114Z,14.19
2018-09-09T06:24:15.115Z,14.07
2018-09-09T06:25:15.129Z,14.16
2018-09-09T06:26:15.117Z,14.19
2018-09-09T06:27:15.156Z,14.10
2018-09-09T06:28:15.164Z,14.17
2018-09-09T06:29:15.120Z,14.24
2018-09-09T06:30:15.119Z,14.29
2018-09-09T06:31:15.116Z,14.39
2018-09-09T06:32:15.143Z,14.50
2018-09-09T06:33:15.120Z,14.72
2018-09-09T06:34:15.117Z,14.78
2018-09-09T06:35:15.116Z,15.05
2018-09-09T06:36:15.120Z,15.19
2018-09-09T06:37:15.149Z,15.60
2018-09-09T06:38:15.128Z,15.75
2018-09-09T06:39:15.116Z,15.94
2018-09-09T06:40:15.116Z,15.97
2018-09-09T06:41:15.132Z,16.14
2018-09-09T06:42:15.144Z,16.06
2018-09-09T06:43:15.121Z,16.23
2018-09-09T06:44:15.122Z,16.27
2018-09-09T06:45:15.123Z,16.44
2018-09-09T06:46:15.121Z,16.70
2018-09-09T06:47:15.152Z,16.92
2018-09-09T06:48:15.122Z,17.04
2018-09-09T06:49:15.126Z,17.38
2018-09-09T06:50:15.125Z,17.71
2018-09-09T06:51:15.150Z,18.09
2018-09-09T06:52:15.154Z,18.44
2018-09-09T06:53:15.130Z,17.91
2018-09-09T06:54:15.127Z,17.55
2018-09-09T06:55:15.154Z,16.99
2018-09-09T06:56:15.135Z,16.68
2018-09-09T06:57:15.168Z,16.56
2018-09-09T06:58:15.146Z,16.37
2018-09-09T06:59:15.137Z,16.33
2018-09-09T07:00:15.143Z,16.38
2018-09-09T07:01:15.144Z,16.52
2018-09-09T07:02:15.182Z,16.53
2018-09-09T07:03:15.148Z,16.49
2018-09-09T07:04:15.149Z,16.44
2018-09-09T07:05:15.168Z,16.52
2018-09-09T07:06:15.157Z,16.53
2018-09-09T07:07:15.181Z,16.67
2018-09-09T07:08:15.156Z,16.74
2018-09-09T07:09:15.157Z,16.93
2018-09-09T07:10:15.157Z,17.17
2018-09-09T07:11:15.249Z,17.25
2018-09-09T07:12:15.189Z,17.33
2018-09-09T07:13:15.161Z,17.33
2018-09-09T07:14:15.166Z,17.40
2018-09-09T07:15:15.166Z,17.32
2018-09-09T07:16:15.212Z,17.38
2018-09-09T07:17:15.174Z,17.35
2018-09-09T07:18:15.175Z,17.32
2018-09-09T07:19:15.228Z,17.43
2018-09-09T07:20:15.174Z,17.32
2018-09-09T07:21:15.179Z,17.23
2018-09-09T07:22:15.210Z,17.14
2018-09-09T07:23:15.182Z,17.14
2018-09-09T07:24:15.185Z,17.08
2018-09-09T07:25:15.191Z,17.07
2018-09-09T07:26:15.188Z,17.11
2018-09-09T07:27:15.213Z,17.18
2018-09-09T07:28:15.191Z,17.23
2018-09-09T07:29:15.191Z,17.18
2018-09-09T07:30:15.196Z,17.06
2018-09-09T07:31:15.268Z,17.03
2018-09-09T07:32:15.219Z,17.00
2018-09-09T07:33:15.204Z,17.11
2018-09-09T07:34:15.223Z,17.30
2018-09-09T07:35:15.219Z,17.41
2018-09-09T07:36:15.252Z,17.54
2018-09-09T07:37:15.224Z,17.87
2018-09-09T07:38:15.240Z,17.92
2018-09-09T07:39:15.214Z,18.21
2018-09-09T07:40:15.217Z,18.39
2018-09-09T07:41:15.222Z,18.50
2018-09-09T07:42:15.249Z,18.58
2018-09-09T07:43:15.897Z,18.58
2018-09-09T07:44:15.230Z,18.68
2018-09-09T07:45:15.235Z,18.86
2018-09-09T07:46:15.257Z,18.97
2018-09-09T07:47:15.306Z,19.35
2018-09-09T07:48:15.243Z,19.50
2018-09-09T07:49:15.243Z,19.55
2018-09-09T07:50:15.267Z,19.66
2018-09-09T07:51:15.262Z,20.21
2018-09-09T07:52:15.279Z,20.80
2018-09-09T07:53:15.256Z,21.26
2018-09-09T07:54:15.260Z,20.93
2018-09-09T07:55:15.291Z,20.66
2018-09-09T07:56:15.269Z,20.43
2018-09-09T07:57:15.280Z,20.34
2018-09-09T07:58:15.303Z,20.28
2018-09-09T07:59:15.283Z,20.39
2018-09-09T08:00:15.309Z,20.50
2018-09-09T08:01:15.290Z,20.81
2018-09-09T08:02:15.297Z,21.20
2018-09-09T08:03:15.327Z,21.74
2018-09-09T08:04:15.307Z,22.35
2018-09-09T08:05:15.316Z,23.17
2018-09-09T08:06:15.329Z,23.46
2018-09-09T08:07:15.321Z,23.95
2018-09-09T08:08:15.369Z,24.17
2018-09-09T08:09:15.981Z,24.85
2018-09-09T08:10:15.377Z,24.77
2018-09-09T08:11:15.349Z,24.56
2018-09-09T08:12:15.396Z,24.05
2018-09-09T08:13:15.362Z,23.82
2018-09-09T08:14:15.402Z,23.64
2018-09-09T08:15:15.390Z,23.49
2018-09-09T08:16:15.391Z,23.01
2018-09-09T08:17:15.913Z,23.02
2018-09-09T08:18:15.446Z,23.12
2018-09-09T08:19:15.438Z,23.80
2018-09-09T08:20:15.421Z,24.08
2018-09-09T08:21:15.432Z,24.08
2018-09-09T08:22:15.456Z,24.00
2018-09-09T08:23:15.471Z,24.23
2018-09-09T08:24:15.484Z,24.42
2018-09-09T08:25:15.463Z,24.27
2018-09-09T08:26:16.411Z,24.20
2018-09-09T08:27:15.488Z,24.10
2018-09-09T08:28:15.521Z,24.04
2018-09-09T08:29:15.500Z,23.83
2018-09-09T08:30:15.539Z,23.79
2018-09-09T08:31:15.519Z,23.70
2018-09-09T08:32:15.532Z,23.60
2018-09-09T08:33:15.538Z,23.75
2018-09-09T08:34:15.573Z,23.92
2018-09-09T08:35:15.557Z,24.02
2018-09-09T08:36:15.567Z,24.08
2018-09-09T08:37:15.592Z,24.16
2018-09-09T08:38:18.022Z,24.22
2018-09-09T08:39:15.627Z,24.20
2018-09-09T08:40:15.609Z,24.41
2018-09-09T08:41:15.611Z,24.39
2018-09-09T08:42:15.627Z,24.29
2018-09-09T08:43:15.630Z,24.05
2018-09-09T08:44:15.670Z,23.85
2018-09-09T08:45:15.651Z,23.87
2018-09-09T08:46:15.666Z,23.89
2018-09-09T08:47:15.669Z,23.70
2018-09-09T08:48:15.720Z,23.90
2018-09-09T08:49:15.687Z,24.50
2018-09-09T08:50:15.699Z,24.91
2018-09-09T08:51:15.708Z,25.10
2018-09-09T08:52:15.734Z,25.49
2018-09-09T08:53:15.756Z,25.89
2018-09-09T08:54:15.737Z,26.01
2018-09-09T08:55:15.747Z,26.29
2018-09-09T08:56:15.758Z,26.52
2018-09-09T08:57:15.765Z,26.87
2018-09-09T08:58:15.807Z,27.10
2018-09-09T08:59:15.785Z,27.53
2018-09-09T09:00:15.800Z,27.71
2018-09-09T09:01:15.816Z,27.70
2018-09-09T09:02:15.824Z,27.77
2018-09-09T09:03:15.864Z,27.71
2018-09-09T09:04:15.849Z,27.66
2018-09-09T09:05:15.865Z,27.73
2018-09-09T09:06:15.875Z,27.53
2018-09-09T09:07:15.887Z,27.21
2018-09-09T09:08:15.933Z,26.94
2018-09-09T09:09:15.917Z,26.57
2018-09-09T09:10:15.925Z,26.12
2018-09-09T09:11:15.933Z,25.71
2018-09-09T09:12:15.978Z,25.49
2018-09-09T09:13:15.967Z,25.19
2018-09-09T09:14:15.976Z,25.13
2018-09-09T09:15:15.989Z,25.05
2018-09-09T09:16:16.019Z,24.97
2018-09-09T09:17:16.012Z,24.85
2018-09-09T09:18:16.052Z,24.73
2018-09-09T09:19:16.033Z,24.56
2018-09-09T09:20:16.043Z,24.59
2018-09-09T09:21:16.052Z,24.61
2018-09-09T09:22:16.093Z,24.41
2018-09-09T09:23:16.074Z,24.42
2018-09-09T09:24:16.091Z,24.37
2018-09-09T09:25:16.097Z,24.19
2018-09-09T09:26:16.104Z,24.19
2018-09-09T09:27:16.148Z,24.12
2018-09-09T09:28:16.144Z,24.20
2018-09-09T09:29:16.136Z,24.04
2018-09-09T09:30:16.144Z,24.00
2018-09-09T09:31:16.162Z,24.02
2018-09-09T09:32:16.189Z,23.89
2018-09-09T09:33:16.175Z,23.98
2018-09-09T09:34:16.182Z,23.82
2018-09-09T09:35:16.199Z,23.79
2018-09-09T09:36:16.197Z,23.82
2018-09-09T09:37:16.230Z,23.82
2018-09-09T09:38:16.218Z,23.87
2018-09-09T09:39:16.222Z,24.10
2018-09-09T09:40:17.007Z,24.08
2018-09-09T09:41:18.413Z,24.10
2018-09-09T09:42:16.494Z,24.12
2018-09-09T09:43:19.809Z,24.22
2018-09-09T09:44:17.089Z,24.27
2018-09-09T09:45:16.299Z,24.27
2018-09-09T09:46:16.331Z,24.16
2018-09-09T09:47:16.374Z,24.20
2018-09-09T09:48:16.978Z,24.29
2018-09-09T09:49:19.818Z,24.34
2018-09-09T09:50:17.714Z,24.24
2018-09-09T09:51:16.730Z,24.45
2018-09-09T09:52:17.756Z,24.56
2018-09-09T09:53:16.785Z,24.60
2018-09-09T09:54:19.487Z,24.53
2018-09-09T09:55:31.706Z,24.56
2018-09-09T09:56:21.440Z,24.60
2018-09-09T09:57:17.559Z,24.69
2018-09-09T09:58:21.006Z,24.88
2018-09-09T09:59:16.473Z,24.94
2018-09-09T10:00:17.006Z,25.10
2018-09-09T10:01:17.904Z,25.28
2018-09-09T10:02:16.958Z,25.37
2018-09-09T10:03:16.453Z,25.56
2018-09-09T10:04:16.462Z,25.39
2018-09-09T10:05:16.451Z,25.17
2018-09-09T10:06:16.459Z,25.07
2018-09-09T10:07:16.462Z,24.97
2018-09-09T10:08:16.496Z,25.00
2018-09-09T10:09:16.474Z,24.91
2018-09-09T10:10:16.484Z,25.16
2018-09-09T10:11:16.488Z,25.19
2018-09-09T10:12:16.524Z,25.38
2018-09-09T10:13:16.509Z,25.28
2018-09-09T10:14:16.515Z,25.34
2018-09-09T10:15:16.558Z,25.12
2018-09-09T10:16:16.538Z,25.06
2018-09-09T10:17:16.574Z,25.07
2018-09-09T10:18:16.563Z,24.97
2018-09-09T10:19:16.557Z,24.69
2018-09-09T10:20:16.566Z,24.69
2018-09-09T10:21:16.581Z,24.67
2018-09-09T10:22:16.615Z,24.54
2018-09-09T10:23:16.601Z,24.44
2018-09-09T10:24:16.606Z,24.37
2018-09-09T10:25:16.634Z,24.27
2018-09-09T10:26:16.622Z,24.23
2018-09-09T10:27:16.658Z,24.32
2018-09-09T10:28:16.667Z,24.26
2018-09-09T10:29:16.664Z,24.60
2018-09-09T10:30:16.657Z,25.09
2018-09-09T10:31:16.664Z,25.84
2018-09-09T10:32:16.703Z,26.72
2018-09-09T10:33:16.719Z,26.86
2018-09-09T10:34:16.696Z,27.23
2018-09-09T10:35:16.704Z,27.19
2018-09-09T10:36:16.717Z,27.26
2018-09-09T10:37:16.753Z,27.48
2018-09-09T10:38:16.769Z,27.48
2018-09-09T10:39:16.753Z,27.85
2018-09-09T10:40:16.769Z,27.76
2018-09-09T10:41:16.777Z,27.91
2018-09-09T10:42:16.817Z,28.13
2018-09-09T10:43:16.833Z,28.46
2018-09-09T10:44:16.826Z,28.58
2018-09-09T10:45:16.834Z,28.88
2018-09-09T10:46:16.931Z,29.10
2018-09-09T10:47:16.914Z,29.06
2018-09-09T10:48:16.903Z,28.91
2018-09-09T10:49:16.898Z,28.95
2018-09-09T10:50:16.911Z,29.13
2018-09-09T10:51:16.955Z,29.52
2018-09-09T10:52:16.971Z,29.66
2018-09-09T10:53:17.071Z,30.00
2018-09-09T10:54:16.975Z,30.08
2018-09-09T10:55:16.990Z,29.31
2018-09-09T10:56:17.011Z,28.84
2018-09-09T10:57:17.056Z,28.44
2018-09-09T10:58:17.044Z,28.04
2018-09-09T10:59:17.061Z,27.53
2018-09-09T11:00:17.080Z,27.50
2018-09-09T11:01:17.092Z,27.91
2018-09-09T11:02:17.161Z,28.11
2018-09-09T11:03:17.134Z,28.43
2018-09-09T11:04:17.148Z,28.59
2018-09-09T11:05:17.170Z,28.46
2018-09-09T11:06:17.202Z,27.91
2018-09-09T11:07:17.230Z,27.20
2018-09-09T11:08:17.222Z,27.43
2018-09-09T11:09:17.242Z,27.91
2018-09-09T11:10:17.266Z,28.43
2018-09-09T11:11:17.274Z,28.72
2018-09-09T11:12:17.327Z,28.66
2018-09-09T11:13:17.309Z,29.06
2018-09-09T11:14:17.327Z,29.10
2018-09-09T11:15:17.348Z,28.84
2018-09-09T11:16:17.367Z,28.59
2018-09-09T11:17:17.429Z,28.41
2018-09-09T11:18:17.434Z,28.41
2018-09-09T11:19:17.419Z,27.89
2018-09-09T11:20:17.444Z,27.79
2018-09-09T11:21:17.453Z,27.70
2018-09-09T11:22:17.500Z,27.96
2018-09-09T11:23:17.493Z,28.43
2018-09-09T11:24:17.509Z,28.43
2018-09-09T11:25:17.532Z,28.63
2018-09-09T11:26:17.545Z,28.59
2018-09-09T11:27:17.586Z,28.75
2018-09-09T11:28:17.578Z,28.77
2018-09-09T11:29:17.594Z,28.69
2018-09-09T11:30:17.611Z,28.80
2018-09-09T11:31:17.631Z,28.68
2018-09-09T11:32:17.678Z,28.58
2018-09-09T11:33:17.660Z,28.53
2018-09-09T11:34:17.679Z,28.36
2018-09-09T11:35:17.696Z,28.43
2018-09-09T11:36:17.768Z,28.63
2018-09-09T11:37:17.763Z,28.96
2018-09-09T11:38:17.743Z,28.54
2018-09-09T11:39:17.762Z,28.63
2018-09-09T11:40:17.799Z,28.59
2018-09-09T11:41:17.788Z,28.63
2018-09-09T11:42:17.836Z,28.56
2018-09-09T11:43:17.825Z,27.16
2018-09-09T11:44:17.845Z,25.61
2018-09-09T11:45:17.864Z,25.87
2018-09-09T11:46:17.874Z,26.55
2018-09-09T11:47:17.929Z,26.87
2018-09-09T11:48:17.908Z,27.28
2018-09-09T11:49:17.925Z,27.89
2018-09-09T11:50:17.939Z,28.23
2018-09-09T11:51:17.954Z,28.70
2018-09-09T11:52:17.992Z,29.07
2018-09-09T11:53:18.054Z,29.47
2018-09-09T11:54:18.002Z,29.44
2018-09-09T11:55:18.013Z,29.08
2018-09-09T11:56:18.031Z,29.31
2018-09-09T11:57:18.080Z,28.80
2018-09-09T11:58:18.064Z,28.33
2018-09-09T11:59:18.090Z,28.19
2018-09-09T12:00:18.103Z,28.16
2018-09-09T12:01:18.112Z,27.99
2018-09-09T12:02:18.181Z,27.74
2018-09-09T12:03:18.146Z,27.67
2018-09-09T12:04:18.157Z,27.61
2018-09-09T12:05:18.176Z,27.43
2018-09-09T12:06:18.204Z,27.43
2018-09-09T12:07:18.228Z,27.14
2018-09-09T12:08:18.245Z,26.50
2018-09-09T12:09:18.226Z,26.17
2018-09-09T12:10:18.254Z,25.86
2018-09-09T12:11:18.254Z,25.15
2018-09-09T12:12:18.274Z,24.17
2018-09-09T12:13:18.313Z,24.04
2018-09-09T12:14:18.289Z,23.90
2018-09-09T12:15:18.306Z,24.27
2018-09-09T12:16:18.318Z,24.45
2018-09-09T12:17:18.339Z,24.49
2018-09-09T12:18:18.371Z,24.14
2018-09-09T12:19:18.356Z,24.12
2018-09-09T12:20:18.365Z,24.57
2018-09-09T12:21:18.382Z,25.10
2018-09-09T12:22:18.398Z,25.72
2018-09-09T12:23:18.434Z,25.97
2018-09-09T12:24:18.417Z,25.68
2018-09-09T12:25:18.424Z,25.01
2018-09-09T12:26:18.456Z,25.06
2018-09-09T12:27:18.449Z,25.37
2018-09-09T12:28:18.477Z,25.82
2018-09-09T12:29:18.469Z,26.20
2018-09-09T12:30:18.491Z,26.59
2018-09-09T12:31:18.493Z,26.96
2018-09-09T12:32:18.576Z,27.29
2018-09-09T12:33:18.535Z,27.50
2018-09-09T12:34:18.525Z,27.58
2018-09-09T12:35:18.532Z,27.58
2018-09-09T12:36:18.564Z,27.61
2018-09-09T12:37:18.592Z,27.59
2018-09-09T12:38:18.570Z,27.64
2018-09-09T12:39:18.580Z,27.76
2018-09-09T12:40:18.596Z,27.84
2018-09-09T12:41:18.600Z,27.73
2018-09-09T12:42:18.643Z,27.50
2018-09-09T12:43:18.640Z,27.47
2018-09-09T12:44:18.636Z,27.76
2018-09-09T12:45:18.645Z,27.88
2018-09-09T12:46:18.661Z,27.98
2018-09-09T12:47:18.753Z,27.98
2018-09-09T12:48:18.690Z,27.80
2018-09-09T12:49:18.697Z,27.67
2018-09-09T12:50:18.737Z,27.73
2018-09-09T12:51:18.731Z,27.82
2018-09-09T12:52:18.767Z,27.98